Nearby METAR Reports

 

LGTS - THESALONIKI, GR
Distance from station: 85km
: 11/07/2020 11:50


: 13 km/h
: 28°C
Heat Index: 29°C
: 18°C
: 55%
: 1014 hPa
:
Visibility: greater than 10 km
2020/07/11 08:50 LGTS 110850Z 28007KT CAVOK 28/18 Q1014 NOSIG
LGAV - ATHENS, GR
Distance from station: 546km
: 11/07/2020 11:50


: 30 km/h, : 48 km/h
: 28°C
Heat Index: 28°C
: 15°C
: 45%
: 1013 hPa
:
Visibility: greater than 10 km
2020/07/11 08:50 LGAV 110850Z 03016G26KT CAVOK 28/15 Q1013 NOSIG
 
LGKZ - KOZANI, GR
Distance from station: 130km
: 11/07/2020 11:50
Few Clouds
Few Clouds
   calm
:
: 26°C
: 10°C
: 37%
: 1018 hPa
Clouds: Few Clouds
Visibility: 10 km
Cloud details: Few Clouds 2134 m
2020/07/11 08:50 LGKZ 110850Z 00000KT 9999 FEW070 26/10 Q1018
LGIO - IOANNINA, GR
Distance from station: 265km
: 11/07/2020 11:20

   varies
: varies 4 km/h
: 27°C
Heat Index: 27°C
: 13°C
: 42%
: 1015 hPa
:
Visibility: greater than 10 km
2020/07/11 08:20 LGIO 110820Z VRB02KT CAVOK 27/13 Q1015
 
LGKV - KABALA, GR
Distance from station: 220km
: 11/07/2020 11:50


: 13 km/h
: 27°C
Heat Index: 28°C
: 16°C
: 51%
: 1014 hPa
:
Visibility: greater than 10 km
2020/07/11 08:50 LGKV 110850Z 17007KT CAVOK 27/16 Q1014
LGAL - ALEXANDROUPOLI, GR
Distance from station: 367km
: 11/07/2020 11:50


: 30 km/h
: 28°C
Heat Index: 28°C
: 16°C
: 48%
: 1014 hPa
Clouds:
Visibility: 10 km
Cloud details: 762 m
2020/07/11 08:50 LGAL 110850Z 06016KT 9999 SCT025 28/16 Q1014
 
LGSA - CHANIA,CRETE, GR
Distance from station: 866km
: 11/07/2020 11:50
Few Clouds
Few Clouds

: 13 km/h
: 27°C
Heat Index: 28°C
: 19°C
: 62%
: 1013 hPa
Clouds: Few Clouds
Visibility: 10 km
Cloud details: Few Clouds 762 m
2020/07/11 08:50 LGSA 110850Z 33007KT 9999 FEW025 27/19 Q1013
LGIR - HERAKLIO, CRETE, GR
Distance from station: 882km
: 11/07/2020 11:50
Few Clouds
Few Clouds

: 35 km/h
: 27°C
Heat Index: 28°C
: 19°C
: 62%
: 1012 hPa
Clouds: Few Clouds
Visibility: 10 km
Cloud details: Few Clouds 610 m
2020/07/11 08:50 LGIR 110850Z 31019KT 9999 FEW020 27/19 Q1012 NOSIG
 
LGRP - RHODES, GR
Distance from station: 1.318km
: 11/07/2020 11:50


: 26 km/h
: 28°C
Heat Index: 31°C
: 23°C
: 74%
: 1008 hPa
:
Visibility: greater than 10 km
2020/07/11 08:50 LGRP 110850Z 25014KT CAVOK 28/23 Q1008 NOSIG
LGLR - LARISSA, GR
Distance from station: 182km
: 11/07/2020 11:50
Few Clouds
Few Clouds
   calm
:
: 29°C
Heat Index: 29°C
: 16°C
: 45%
: 1015 hPa
Clouds: Few Clouds
Visibility: 10 km
Cloud details: Few Clouds 914 m
2020/07/11 08:50 LGLR 110850Z 00000KT 9999 FEW030 29/16 Q1015 BLU